Time,TemperatureF,DewpointF,PressureIn,WindDirection,WindDirectionDegrees,WindSpeedMPH,WindSpeedGustMPH,Humidity,HourlyPrecipIn,Conditions,Clouds,dailyrainin,SoftwareType,DateUTC
2013-05-11 00:01:00,53.0,49.0,30.13,NW,317,0.0,1.0,85,0.00,,,0.00,,2013-05-11 07:01:00,
2013-05-11 00:11:00,53.0,49.0,30.13,NW,317,0.0,1.0,85,0.00,,,0.00,,2013-05-11 07:11:00,
2013-05-11 00:21:00,52.0,48.0,30.13,NW,317,0.0,0.0,87,0.00,,,0.00,,2013-05-11 07:21:00,
2013-05-11 00:31:00,52.0,49.0,30.12,NW,317,0.0,0.0,88,0.00,,,0.00,,2013-05-11 07:31:00,
2013-05-11 00:42:00,52.0,49.0,30.12,NW,317,0.0,0.0,88,0.00,,,0.00,,2013-05-11 07:42:00,
2013-05-11 00:52:00,51.0,48.0,30.13,NW,317,0.0,0.0,89,0.00,,,0.00,,2013-05-11 07:52:00,
2013-05-11 01:01:00,51.0,48.0,30.13,NW,317,0.0,0.0,90,0.00,,,0.00,,2013-05-11 08:01:00,
2013-05-11 01:12:00,51.0,48.0,30.13,NW,317,0.0,0.0,90,0.00,,,0.00,,2013-05-11 08:12:00,
2013-05-11 01:21:00,51.0,48.0,30.14,NW,317,0.0,0.0,91,0.00,,,0.00,,2013-05-11 08:21:00,
2013-05-11 01:31:00,51.0,49.0,30.14,NW,317,0.0,0.0,92,0.00,,,0.00,,2013-05-11 08:31:00,
2013-05-11 01:42:00,51.0,48.0,30.14,NW,317,0.0,0.0,91,0.00,,,0.00,,2013-05-11 08:42:00,
2013-05-11 01:51:00,51.0,48.0,30.14,NW,317,0.0,0.0,91,0.00,,,0.00,,2013-05-11 08:51:00,
2013-05-11 02:01:00,51.0,48.0,30.14,NW,317,0.0,0.0,91,0.00,,,0.00,,2013-05-11 09:01:00,
2013-05-11 02:11:00,51.0,48.0,30.14,NW,317,0.0,0.0,91,0.00,,,0.00,,2013-05-11 09:11:00,
2013-05-11 02:21:00,50.0,48.0,30.14,NW,317,0.0,0.0,92,0.00,,,0.00,,2013-05-11 09:21:00,
2013-05-11 02:32:00,50.0,48.0,30.14,NW,317,0.0,0.0,92,0.00,,,0.00,,2013-05-11 09:32:00,
2013-05-11 02:42:00,49.0,47.0,30.13,NW,317,0.0,0.0,92,0.00,,,0.00,,2013-05-11 09:42:00,
2013-05-11 02:52:00,49.0,47.0,30.13,NW,317,0.0,0.0,92,0.00,,,0.00,,2013-05-11 09:52:00,
2013-05-11 03:03:00,49.0,47.0,30.14,NW,317,0.0,0.0,92,0.00,,,0.00,,2013-05-11 10:03:00,
2013-05-11 03:12:00,49.0,47.0,30.14,NW,317,0.0,0.0,92,0.00,,,0.00,,2013-05-11 10:12:00,
2013-05-11 03:22:00,49.0,47.0,30.14,NW,317,0.0,0.0,92,0.00,,,0.00,,2013-05-11 10:22:00,
2013-05-11 03:32:00,49.0,47.0,30.15,NW,317,0.0,0.0,93,0.00,,,0.00,,2013-05-11 10:32:00,
2013-05-11 03:42:00,48.0,46.0,30.14,NW,317,0.0,0.0,93,0.00,,,0.00,,2013-05-11 10:42:00,
2013-05-11 03:52:00,48.0,46.0,30.14,NW,317,0.0,0.0,93,0.00,,,0.00,,2013-05-11 10:52:00,
2013-05-11 04:02:00,49.0,48.0,30.14,NW,317,0.0,0.0,95,0.00,,,0.00,,2013-05-11 11:02:00,
2013-05-11 04:11:00,49.0,48.0,30.14,NW,317,0.0,0.0,95,0.00,,,0.00,,2013-05-11 11:11:00,
2013-05-11 04:21:00,49.0,47.0,30.14,NW,317,0.0,0.0,94,0.00,,,0.00,,2013-05-11 11:21:00,
2013-05-11 04:31:00,49.0,47.0,30.13,NW,317,0.0,0.0,94,0.00,,,0.00,,2013-05-11 11:31:00,
2013-05-11 04:42:00,49.0,47.0,30.12,NW,317,0.0,0.0,94,0.00,,,0.00,,2013-05-11 11:42:00,
2013-05-11 04:51:00,49.0,47.0,30.12,NW,317,0.0,0.0,94,0.00,,,0.00,,2013-05-11 11:51:00,
2013-05-11 05:01:00,50.0,49.0,30.11,NW,317,0.0,0.0,95,0.00,,,0.00,,2013-05-11 12:01:00,
2013-05-11 05:11:00,50.0,49.0,30.11,NW,317,0.0,0.0,95,0.00,,,0.00,,2013-05-11 12:11:00,
2013-05-11 05:21:00,50.0,49.0,30.11,NW,317,0.0,2.0,95,0.00,,,0.00,,2013-05-11 12:21:00,
2013-05-11 05:32:00,50.0,49.0,30.12,SW,219,0.0,3.0,95,0.00,,,0.00,,2013-05-11 12:32:00,
2013-05-11 05:42:00,51.0,50.0,30.12,SW,219,0.0,2.0,95,0.00,,,0.00,,2013-05-11 12:42:00,
2013-05-11 05:51:00,51.0,50.0,30.12,SW,219,0.0,2.0,95,0.00,,,0.00,,2013-05-11 12:51:00,
2013-05-11 06:01:00,51.0,50.0,30.12,SW,219,0.0,0.0,95,0.00,,,0.00,,2013-05-11 13:01:00,
2013-05-11 06:11:00,51.0,50.0,30.12,SW,219,0.0,0.0,95,0.00,,,0.00,,2013-05-11 13:11:00,
2013-05-11 06:21:00,51.0,49.0,30.11,SW,219,0.0,2.0,94,0.00,,,0.00,,2013-05-11 13:21:00,
2013-05-11 06:31:00,51.0,50.0,30.11,SW,219,0.0,1.0,95,0.00,,,0.00,,2013-05-11 13:31:00,
2013-05-11 06:41:00,51.0,49.0,30.11,SW,219,0.0,0.0,94,0.00,,,0.00,,2013-05-11 13:41:00,
2013-05-11 06:52:00,51.0,49.0,30.11,SW,219,0.0,0.0,94,0.00,,,0.00,,2013-05-11 13:52:00,
2013-05-11 07:02:00,51.0,50.0,30.12,SW,219,0.0,0.0,95,0.00,,,0.00,,2013-05-11 14:02:00,
2013-05-11 07:11:00,51.0,50.0,30.12,SW,219,0.0,0.0,95,0.00,,,0.00,,2013-05-11 14:11:00,
2013-05-11 07:21:00,52.0,51.0,30.11,SW,219,0.0,0.0,95,0.00,,,0.00,,2013-05-11 14:21:00,
2013-05-11 07:32:00,53.0,52.0,30.11,SW,219,0.0,0.0,95,0.00,,,0.00,,2013-05-11 14:32:00,
2013-05-11 07:41:00,53.0,52.0,30.11,SW,219,0.0,0.0,95,0.00,,,0.00,,2013-05-11 14:41:00,
2013-05-11 07:51:00,54.0,53.0,30.12,SW,219,0.0,1.0,95,0.00,,,0.00,,2013-05-11 14:51:00,
2013-05-11 08:01:00,55.0,52.0,30.13,SW,219,0.0,0.0,91,0.00,,,0.00,,2013-05-11 15:01:00,
2013-05-11 08:11:00,55.0,52.0,30.13,SW,219,0.0,0.0,91,0.00,,,0.00,,2013-05-11 15:11:00,
2013-05-11 08:21:00,56.0,53.0,30.12,SW,219,0.0,0.0,90,0.00,,,0.00,,2013-05-11 15:21:00,
2013-05-11 08:32:00,56.0,53.0,30.12,SW,219,0.0,0.0,90,0.00,,,0.00,,2013-05-11 15:32:00,
2013-05-11 08:42:00,56.0,53.0,30.12,SW,219,0.0,0.0,90,0.00,,,0.00,,2013-05-11 15:42:00,
2013-05-11 08:53:00,56.0,53.0,30.12,SW,219,0.0,0.0,90,0.00,,,0.00,,2013-05-11 15:53:00,
2013-05-11 09:02:00,59.0,48.0,30.13,ESE,102,2.0,5.0,68,0.00,,,0.00,,2013-05-11 16:02:00,
2013-05-11 09:12:00,59.0,48.0,30.13,ESE,102,2.0,5.0,68,0.00,,,0.00,,2013-05-11 16:12:00,
2013-05-11 09:22:00,60.0,48.0,30.13,SSE,155,1.0,4.0,64,0.00,,,0.00,,2013-05-11 16:22:00,
2013-05-11 09:32:00,60.0,48.0,30.13,SSE,155,1.0,4.0,64,0.00,,,0.00,,2013-05-11 16:32:00,
2013-05-11 09:42:00,60.0,48.0,30.13,SSE,155,1.0,4.0,64,0.00,,,0.00,,2013-05-11 16:42:00,
2013-05-11 09:52:00,60.0,48.0,30.13,SSE,155,1.0,4.0,64,0.00,,,0.00,,2013-05-11 16:52:00,
2013-05-11 11:32:00,72.0,51.0,30.08,SE,135,1.0,4.0,48,0.00,,,0.00,,2013-05-11 18:32:00,
2013-05-11 11:42:00,72.0,51.0,30.08,SE,135,1.0,4.0,48,0.00,,,0.00,,2013-05-11 18:42:00,
2013-05-11 11:52:00,72.0,51.0,30.08,SE,135,1.0,4.0,48,0.00,,,0.00,,2013-05-11 18:52:00,
2013-05-11 12:02:00,74.0,56.0,30.08,West,260,3.0,5.0,53,0.00,,,0.00,,2013-05-11 19:02:00,
2013-05-11 12:11:00,74.0,56.0,30.08,West,260,3.0,5.0,53,0.00,,,0.00,,2013-05-11 19:11:00,
2013-05-11 12:21:00,74.0,53.0,30.07,West,271,0.0,3.0,48,0.00,,,0.00,,2013-05-11 19:21:00,
2013-05-11 12:32:00,75.0,56.0,30.07,SSE,165,0.0,4.0,52,0.00,,,0.00,,2013-05-11 19:32:00,
2013-05-11 12:40:00,76.0,56.0,30.06,ESE,102,0.0,4.0,50,0.00,,,0.00,,2013-05-11 19:40:00,
2013-05-11 12:41:00,75.0,56.0,30.07,SSE,165,0.0,4.0,52,0.00,,,0.00,,2013-05-11 19:41:00,
2013-05-11 12:52:00,76.0,55.0,30.06,SE,146,1.0,6.0,48,0.00,,,0.00,,2013-05-11 19:52:00,
2013-05-11 13:01:00,76.0,56.0,30.06,ESE,102,0.0,4.0,50,0.00,,,0.00,,2013-05-11 20:01:00,
2013-05-11 13:11:00,76.0,56.0,30.06,ESE,102,0.0,4.0,50,0.00,,,0.00,,2013-05-11 20:11:00,
2013-05-11 13:22:00,76.0,56.0,30.06,ESE,102,0.0,4.0,50,0.00,,,0.00,,2013-05-11 20:22:00,
2013-05-11 13:32:00,76.0,56.0,30.06,ESE,102,0.0,4.0,50,0.00,,,0.00,,2013-05-11 20:32:00,
2013-05-11 14:52:00,80.0,58.0,30.03,SW,227,2.0,6.0,47,0.00,,,0.00,,2013-05-11 21:52:00,
2013-05-11 15:02:00,81.0,56.0,30.02,South,182,0.0,6.0,43,0.00,,,0.00,,2013-05-11 22:02:00,
2013-05-11 15:12:00,81.0,56.0,30.02,South,182,0.0,6.0,43,0.00,,,0.00,,2013-05-11 22:12:00,
2013-05-11 15:22:00,82.0,57.0,30.02,SSW,213,1.0,7.0,42,0.00,,,0.00,,2013-05-11 22:22:00,
2013-05-11 15:32:00,82.0,55.0,30.01,SSW,208,1.0,9.0,40,0.00,,,0.00,,2013-05-11 22:32:00,
2013-05-11 15:42:00,82.0,55.0,30.01,SSW,208,1.0,9.0,40,0.00,,,0.00,,2013-05-11 22:42:00,
2013-05-11 15:52:00,81.0,55.0,30.01,SE,137,1.0,6.0,41,0.00,,,0.00,,2013-05-11 22:52:00,
2013-05-11 16:02:00,81.0,56.0,30.00,SSW,209,2.0,5.0,42,0.00,,,0.00,,2013-05-11 23:02:00,
2013-05-11 16:11:00,81.0,56.0,30.00,SSW,209,2.0,5.0,42,0.00,,,0.00,,2013-05-11 23:11:00,
2013-05-11 16:21:00,82.0,55.0,30.00,SW,214,3.0,7.0,40,0.00,,,0.00,,2013-05-11 23:21:00,
2013-05-11 16:32:00,83.0,59.0,29.99,SSW,193,1.0,5.0,44,0.00,,,0.00,,2013-05-11 23:32:00,
2013-05-11 16:42:00,82.0,55.0,29.99,SSE,153,2.0,7.0,40,0.00,,,0.00,,2013-05-11 23:42:00,
2013-05-11 16:52:00,82.0,55.0,29.99,SSE,153,2.0,7.0,40,0.00,,,0.00,,2013-05-11 23:52:00,
2013-05-11 17:01:00,82.0,56.0,29.98,South,188,2.0,7.0,41,0.00,,,0.00,,2013-05-12 00:01:00,
2013-05-11 17:11:00,82.0,56.0,29.98,South,188,2.0,7.0,41,0.00,,,0.00,,2013-05-12 00:11:00,
2013-05-11 17:21:00,81.0,54.0,29.98,South,179,3.0,7.0,40,0.00,,,0.00,,2013-05-12 00:21:00,
2013-05-11 17:32:00,81.0,54.0,29.98,SE,126,0.0,4.0,39,0.00,,,0.00,,2013-05-12 00:32:00,
2013-05-11 17:41:00,80.0,51.0,29.98,SSE,166,2.0,8.0,37,0.00,,,0.00,,2013-05-12 00:41:00,
2013-05-11 17:51:00,80.0,51.0,29.98,SSE,166,2.0,8.0,37,0.00,,,0.00,,2013-05-12 00:51:00,
2013-05-11 18:01:00,80.0,52.0,29.97,SSE,148,1.0,7.0,38,0.00,,,0.00,,2013-05-12 01:01:00,
2013-05-11 18:11:00,80.0,52.0,29.97,SSE,148,1.0,7.0,38,0.00,,,0.00,,2013-05-12 01:11:00,
2013-05-11 18:21:00,78.0,55.0,29.97,WNW,285,2.0,8.0,45,0.00,,,0.00,,2013-05-12 01:21:00,
2013-05-11 18:31:00,74.0,54.0,29.96,WNW,294,4.0,8.0,50,0.00,,,0.00,,2013-05-12 01:31:00,
2013-05-11 18:41:00,71.0,53.0,29.96,NW,321,7.0,17.0,53,0.00,,,0.00,,2013-05-12 01:41:00,
2013-05-11 18:52:00,71.0,53.0,29.96,NW,321,7.0,17.0,53,0.00,,,0.00,,2013-05-12 01:52:00,
2013-05-11 19:01:00,66.0,52.0,29.96,NW,325,3.0,16.0,60,0.00,,,0.00,,2013-05-12 02:01:00,
2013-05-11 19:11:00,66.0,52.0,29.96,NW,325,3.0,16.0,60,0.00,,,0.00,,2013-05-12 02:11:00,
2013-05-11 19:21:00,64.0,52.0,29.96,WNW,289,2.0,5.0,65,0.00,,,0.00,,2013-05-12 02:21:00,
2013-05-11 19:31:00,64.0,53.0,29.96,NW,310,2.0,4.0,68,0.00,,,0.00,,2013-05-12 02:31:00,
2013-05-11 19:41:00,64.0,53.0,29.96,NW,310,2.0,4.0,68,0.00,,,0.00,,2013-05-12 02:41:00,
2013-05-11 19:52:00,64.0,53.0,29.96,NW,310,2.0,4.0,68,0.00,,,0.00,,2013-05-12 02:52:00,
2013-05-11 20:01:00,62.0,52.0,29.96,NW,310,0.0,3.0,70,0.00,,,0.00,,2013-05-12 03:01:00,
2013-05-11 20:11:00,62.0,53.0,29.96,NW,310,0.0,3.0,72,0.00,,,0.00,,2013-05-12 03:11:00,
2013-05-11 20:21:00,62.0,53.0,29.96,NW,310,0.0,3.0,72,0.00,,,0.00,,2013-05-12 03:21:00,
2013-05-11 20:32:00,61.0,52.0,29.96,NW,310,1.0,3.0,73,0.00,,,0.00,,2013-05-12 03:32:00,
2013-05-11 20:42:00,61.0,52.0,29.96,NW,310,1.0,3.0,73,0.00,,,0.00,,2013-05-12 03:42:00,
2013-05-11 20:53:00,61.0,53.0,29.96,West,271,0.0,0.0,74,0.00,,,0.00,,2013-05-12 03:53:00,
2013-05-11 21:02:00,-999.0,-99.9,29.96,West,271,0.0,0.0,75,0.00,,,0.00,,2013-05-12 04:02:00,
2013-05-11 21:12:00,60.0,52.0,29.96,West,271,0.0,0.0,75,0.00,,,0.00,,2013-05-12 04:12:00,
2013-05-11 21:22:00,60.0,53.0,29.97,West,271,0.0,1.0,77,0.00,,,0.00,,2013-05-12 04:22:00,
2013-05-11 21:33:00,59.0,51.0,29.98,West,281,1.0,5.0,76,0.00,,,0.00,,2013-05-12 04:33:00,
2013-05-11 21:42:00,59.0,51.0,29.98,West,281,1.0,5.0,76,0.00,,,0.00,,2013-05-12 04:42:00,
2013-05-11 21:52:00,59.0,51.0,29.99,NW,321,3.0,10.0,76,0.00,,,0.00,,2013-05-12 04:52:00,
2013-05-11 22:02:00,59.0,51.0,30.01,WNW,300,3.0,13.0,76,0.00,,,0.00,,2013-05-12 05:02:00,
2013-05-11 22:11:00,59.0,51.0,30.01,WNW,300,3.0,13.0,76,0.00,,,0.00,,2013-05-12 05:11:00,
2013-05-11 22:21:00,59.0,51.0,30.01,NW,320,5.0,11.0,74,0.00,,,0.00,,2013-05-12 05:21:00,
2013-05-11 22:31:00,59.0,51.0,30.01,NW,307,3.0,13.0,74,0.00,,,0.00,,2013-05-12 05:31:00,
2013-05-11 22:42:00,59.0,51.0,30.01,NW,307,3.0,13.0,74,0.00,,,0.00,,2013-05-12 05:42:00,
2013-05-11 22:51:00,59.0,51.0,30.01,West,261,0.0,7.0,76,0.00,,,0.00,,2013-05-12 05:51:00,
2013-05-11 23:01:00,59.0,51.0,30.01,West,261,1.0,2.0,75,0.00,,,0.00,,2013-05-12 06:01:00,
2013-05-11 23:11:00,59.0,51.0,30.01,West,261,1.0,2.0,75,0.00,,,0.00,,2013-05-12 06:11:00,
2013-05-11 23:21:00,58.0,51.0,30.00,West,261,0.0,0.0,77,0.00,,,0.00,,2013-05-12 06:21:00,
2013-05-11 23:31:00,58.0,51.0,30.00,West,261,0.0,1.0,78,0.00,,,0.00,,2013-05-12 06:31:00,
2013-05-11 23:41:00,57.0,51.0,29.99,West,261,0.0,0.0,80,0.00,,,0.00,,2013-05-12 06:41:00,
2013-05-11 23:51:00,57.0,51.0,29.99,West,261,0.0,0.0,80,0.00,,,0.00,,2013-05-12 06:51:00,